createdAt,value
2022-11-18T00:00:39.105Z,991.97
2022-11-18T00:02:36.059Z,991.97
2022-11-18T00:04:35.272Z,992.01
2022-11-18T00:06:35.940Z,992.01
2022-11-18T00:08:35.442Z,992.07
2022-11-18T00:10:35.699Z,992.07
2022-11-18T00:12:35.448Z,992.14
2022-11-18T00:14:35.272Z,992.14
2022-11-18T00:16:35.878Z,992.26
2022-11-18T00:18:35.091Z,992.26
2022-11-18T00:20:35.487Z,992.31
2022-11-18T00:22:41.224Z,992.31
2022-11-18T00:24:35.529Z,992.32
2022-11-18T00:26:35.460Z,992.32
2022-11-18T00:28:35.040Z,992.41
2022-11-18T00:30:35.884Z,992.41
2022-11-18T00:32:35.337Z,992.42
2022-11-18T00:34:35.441Z,992.42
2022-11-18T00:36:35.899Z,992.72
2022-11-18T00:38:34.958Z,992.72
2022-11-18T00:40:35.622Z,992.52
2022-11-18T00:42:35.913Z,992.52
2022-11-18T00:44:41.859Z,992.74
2022-11-18T00:46:35.060Z,992.74
2022-11-18T00:48:35.331Z,992.67
2022-11-18T00:50:35.609Z,992.67
2022-11-18T00:52:35.588Z,992.91
2022-11-18T00:54:35.964Z,992.91
2022-11-18T00:56:35.226Z,992.99
2022-11-18T00:58:35.656Z,992.99
2022-11-18T01:00:38.684Z,993.03
2022-11-18T01:02:35.673Z,993.03
2022-11-18T01:04:35.924Z,992.92
2022-11-18T01:06:35.102Z,992.92
2022-11-18T01:08:35.237Z,992.95
2022-11-18T01:10:35.442Z,992.95
2022-11-18T01:12:35.512Z,993.04
2022-11-18T01:14:35.391Z,993.04
2022-11-18T01:16:35.592Z,993.26
2022-11-18T01:18:36.071Z,993.26
2022-11-18T01:20:35.181Z,993.13
2022-11-18T01:22:35.501Z,993.13
2022-11-18T01:24:35.659Z,993.22
2022-11-18T01:26:35.830Z,993.22
2022-11-18T01:28:35.672Z,993.11
2022-11-18T01:30:35.729Z,993.11
2022-11-18T01:32:58.607Z,993.33
2022-11-18T01:34:35.407Z,993.33
2022-11-18T01:36:35.150Z,993.27
2022-11-18T01:38:35.892Z,993.27
2022-11-18T01:40:35.258Z,993.35
2022-11-18T01:42:35.803Z,993.35
2022-11-18T01:44:36.009Z,993.47
2022-11-18T01:46:35.758Z,993.47
2022-11-18T01:48:35.995Z,993.4
2022-11-18T01:50:35.993Z,993.4
2022-11-18T01:52:35.280Z,993.54
2022-11-18T01:54:35.651Z,993.54
2022-11-18T01:56:35.108Z,993.58
2022-11-18T01:58:35.245Z,993.58
2022-11-18T02:00:38.685Z,993.52
2022-11-18T02:02:35.969Z,993.52
2022-11-18T02:04:35.179Z,993.57
2022-11-18T02:06:35.246Z,993.57
2022-11-18T02:08:35.501Z,993.59
2022-11-18T02:10:36.020Z,993.59
2022-11-18T02:12:36.262Z,993.63
2022-11-18T02:14:35.954Z,993.63
2022-11-18T02:16:34.981Z,993.81
2022-11-18T02:18:35.160Z,993.81
2022-11-18T02:20:35.489Z,993.83
2022-11-18T02:22:35.357Z,993.83
2022-11-18T02:24:35.438Z,993.84
2022-11-18T02:26:35.121Z,993.84
2022-11-18T02:28:35.910Z,993.89
2022-11-18T02:30:36.054Z,993.89
2022-11-18T02:32:35.767Z,993.87
2022-11-18T02:34:35.899Z,993.87
2022-11-18T02:36:35.067Z,994.02
2022-11-18T02:38:35.362Z,994.02
2022-11-18T02:40:35.891Z,994.01
2022-11-18T02:42:35.117Z,994.01
2022-11-18T02:44:35.283Z,994.09
2022-11-18T02:46:35.184Z,994.09
2022-11-18T02:48:35.218Z,994.02
2022-11-18T02:50:35.912Z,994.02
2022-11-18T02:52:35.081Z,994.07
2022-11-18T02:54:35.447Z,994.07
2022-11-18T02:56:35.869Z,993.97
2022-11-18T02:58:35.358Z,993.97
2022-11-18T03:00:39.089Z,994.01
2022-11-18T03:02:35.971Z,994.01
2022-11-18T03:04:35.403Z,994.04
2022-11-18T03:06:35.595Z,994.04
2022-11-18T03:08:35.840Z,994.09
2022-11-18T03:10:36.031Z,994.09
2022-11-18T03:12:35.319Z,994.15
2022-11-18T03:14:35.607Z,994.15
2022-11-18T03:16:35.540Z,994.29
2022-11-18T03:18:35.953Z,994.29
2022-11-18T03:20:35.670Z,994.18
2022-11-18T03:22:35.622Z,994.18
2022-11-18T03:24:35.994Z,994.32
2022-11-18T03:26:35.619Z,994.31
2022-11-18T03:28:35.497Z,994.31
2022-11-18T03:30:35.546Z,994.3
2022-11-18T03:32:36.037Z,994.3
2022-11-18T03:34:35.716Z,994.4
2022-11-18T03:36:35.871Z,994.4
2022-11-18T03:38:35.383Z,994.33
2022-11-18T03:40:35.298Z,994.33
2022-11-18T03:42:35.781Z,994.42
2022-11-18T03:44:35.683Z,994.42
2022-11-18T03:46:35.960Z,994.5
2022-11-18T03:48:36.118Z,994.5
2022-11-18T03:50:35.327Z,994.52
2022-11-18T03:52:35.939Z,994.52
2022-11-18T03:54:35.854Z,994.68
2022-11-18T03:56:40.021Z,994.68
2022-11-18T03:58:35.406Z,994.56
2022-11-18T04:00:38.988Z,994.56
2022-11-18T04:02:35.338Z,994.67
2022-11-18T04:04:35.518Z,994.67
2022-11-18T04:06:35.665Z,994.75
2022-11-18T04:08:35.582Z,994.75
2022-11-18T04:10:35.844Z,994.78
2022-11-18T04:12:35.576Z,994.78
2022-11-18T04:14:35.582Z,994.81
2022-11-18T04:16:35.854Z,994.81
2022-11-18T04:18:36.044Z,994.9
2022-11-18T04:20:35.909Z,994.9
2022-11-18T04:22:35.326Z,994.89
2022-11-18T04:24:35.864Z,994.89
2022-11-18T04:26:35.939Z,994.98
2022-11-18T04:28:35.396Z,994.98
2022-11-18T04:30:36.002Z,995.11
2022-11-18T04:32:35.135Z,995.11
2022-11-18T04:34:35.727Z,995.12
2022-11-18T04:36:35.330Z,995.12
2022-11-18T04:38:41.597Z,995.18
2022-11-18T04:40:36.038Z,995.18
2022-11-18T04:42:35.251Z,995.2
2022-11-18T04:44:36.053Z,995.2
2022-11-18T04:46:36.010Z,995.19
2022-11-18T04:48:37.911Z,995.19
2022-11-18T04:50:35.951Z,995.35
2022-11-18T04:52:35.104Z,995.35
2022-11-18T04:54:35.734Z,995.36
2022-11-18T04:56:36.007Z,995.36
2022-11-18T04:58:35.071Z,995.36
2022-11-18T05:00:37.842Z,995.36
2022-11-18T05:02:35.562Z,995.41
2022-11-18T05:04:35.884Z,995.41
2022-11-18T05:06:35.035Z,995.48
2022-11-18T05:08:35.660Z,995.48
2022-11-18T05:10:35.514Z,995.52
2022-11-18T05:12:35.862Z,995.52
2022-11-18T05:14:35.060Z,995.57
2022-11-18T05:16:35.903Z,995.57
2022-11-18T05:18:35.779Z,995.53
2022-11-18T05:20:41.208Z,995.53
2022-11-18T05:22:35.584Z,995.63
2022-11-18T05:24:35.616Z,995.63
2022-11-18T05:26:36.516Z,995.63
2022-11-18T05:28:35.535Z,995.63
2022-11-18T05:30:36.038Z,995.62
2022-11-18T05:32:35.602Z,995.62
2022-11-18T05:34:35.343Z,995.74
2022-11-18T05:36:35.342Z,995.74
2022-11-18T05:38:35.492Z,995.58
2022-11-18T05:40:35.159Z,995.58
2022-11-18T05:42:35.545Z,995.72
2022-11-18T05:44:35.062Z,995.72
2022-11-18T05:46:35.648Z,995.8
2022-11-18T05:48:35.485Z,995.8
2022-11-18T05:50:41.050Z,996.02
2022-11-18T05:52:35.588Z,996.02
2022-11-18T05:54:36.053Z,995.95
2022-11-18T05:56:36.051Z,995.95
2022-11-18T05:58:35.358Z,996.01
2022-11-18T06:00:39.741Z,996.01
2022-11-18T06:02:35.931Z,995.98
2022-11-18T06:04:35.020Z,995.98
2022-11-18T06:06:35.614Z,996.08
2022-11-18T06:08:35.148Z,996.08
2022-11-18T06:10:40.163Z,996.12
2022-11-18T06:12:35.763Z,996.12
2022-11-18T06:14:35.451Z,996.17
2022-11-18T06:16:40.528Z,996.17
2022-11-18T06:18:35.474Z,996.25
2022-11-18T06:20:35.730Z,996.25
2022-11-18T06:22:35.607Z,996.44
2022-11-18T06:24:35.931Z,996.44
2022-11-18T06:26:35.769Z,996.43
2022-11-18T06:28:35.728Z,996.43
2022-11-18T06:30:35.738Z,996.4
2022-11-18T06:32:35.924Z,996.4
2022-11-18T06:34:41.021Z,996.53
2022-11-18T06:36:35.286Z,996.53
2022-11-18T06:38:35.425Z,996.55
2022-11-18T06:40:35.188Z,996.55
2022-11-18T06:42:35.141Z,996.66
2022-11-18T06:44:35.193Z,996.66
2022-11-18T06:46:42.772Z,996.6
2022-11-18T06:48:35.113Z,996.78
2022-11-18T06:50:35.665Z,996.78
2022-11-18T06:52:35.125Z,996.83
2022-11-18T06:54:41.404Z,996.83
2022-11-18T06:56:36.016Z,996.91
2022-11-18T06:58:35.371Z,996.91
2022-11-18T07:00:37.881Z,997.04
2022-11-18T07:02:35.510Z,997.04
2022-11-18T07:04:35.568Z,997.07
2022-11-18T07:06:35.246Z,997.07
2022-11-18T07:08:35.833Z,997.12
2022-11-18T07:10:35.309Z,997.12
2022-11-18T07:12:35.518Z,996.99
2022-11-18T07:14:35.826Z,996.99
2022-11-18T07:16:35.530Z,997.25
2022-11-18T07:18:35.490Z,997.25
2022-11-18T07:20:35.846Z,997.2
2022-11-18T07:22:35.198Z,997.2
2022-11-18T07:24:35.236Z,997.31
2022-11-18T07:26:35.594Z,997.31
2022-11-18T07:28:36.028Z,997.25
2022-11-18T07:30:35.633Z,997.25
2022-11-18T07:32:35.955Z,997.3
2022-11-18T07:34:35.235Z,997.3
2022-11-18T07:36:36.030Z,997.33
2022-11-18T07:38:35.663Z,997.33
2022-11-18T07:40:35.712Z,997.51
2022-11-18T07:42:35.908Z,997.51
2022-11-18T07:44:35.376Z,997.58
2022-11-18T07:46:35.921Z,997.58
2022-11-18T07:48:35.606Z,997.63
2022-11-18T07:50:35.346Z,997.63
2022-11-18T07:52:35.360Z,997.71
2022-11-18T07:54:35.319Z,997.71
2022-11-18T07:56:35.373Z,997.79
2022-11-18T07:58:35.681Z,997.79
2022-11-18T08:00:38.198Z,997.8
2022-11-18T08:02:35.935Z,997.8
2022-11-18T08:04:35.938Z,997.86
2022-11-18T08:06:35.845Z,997.86
2022-11-18T08:08:35.848Z,997.95
2022-11-18T08:10:35.765Z,997.95
2022-11-18T08:12:35.657Z,997.99
2022-11-18T08:14:35.273Z,997.99
2022-11-18T08:16:35.737Z,998.14
2022-11-18T08:18:36.501Z,998.14
2022-11-18T08:20:35.761Z,998.14
2022-11-18T08:22:35.295Z,998.14
2022-11-18T08:24:35.372Z,998.22
2022-11-18T08:26:35.190Z,998.22
2022-11-18T08:28:35.563Z,998.17
2022-11-18T08:30:35.456Z,998.17
2022-11-18T08:32:35.485Z,998.24
2022-11-18T08:34:35.219Z,998.24
2022-11-18T08:36:35.261Z,998.28
2022-11-18T08:38:35.232Z,998.28
2022-11-18T08:40:35.594Z,998.32
2022-11-18T08:42:36.737Z,998.32
2022-11-18T08:44:35.521Z,998.37
2022-11-18T08:46:35.449Z,998.37
2022-11-18T08:48:35.783Z,998.54
2022-11-18T08:50:35.859Z,998.54
2022-11-18T08:52:35.191Z,998.4
2022-11-18T08:54:35.515Z,998.4
2022-11-18T08:56:35.560Z,998.41
2022-11-18T08:58:35.689Z,998.41
2022-11-18T09:00:40.060Z,998.49
2022-11-18T09:02:37.129Z,998.49
2022-11-18T09:04:35.568Z,998.39
2022-11-18T09:06:35.855Z,998.39
2022-11-18T09:08:35.267Z,998.58
2022-11-18T09:10:35.518Z,998.58
2022-11-18T09:12:35.240Z,998.66
2022-11-18T09:15:37.247Z,998.5
2022-11-18T09:18:35.613Z,998.5
2022-11-18T09:22:35.496Z,998.61
2022-11-18T09:26:36.124Z,998.69
2022-11-18T09:30:35.388Z,998.74
2022-11-18T09:34:35.579Z,998.83
2022-11-18T09:38:35.412Z,998.9
2022-11-18T09:42:35.371Z,998.87
2022-11-18T09:46:35.872Z,998.91
2022-11-18T09:51:13.080Z,999.07
2022-11-18T09:54:35.954Z,999.07
2022-11-18T09:58:36.043Z,999.18
2022-11-18T10:02:36.263Z,999.24
2022-11-18T10:06:35.676Z,999.25
2022-11-18T10:10:35.870Z,999.29
2022-11-18T10:14:35.377Z,999.45
2022-11-18T10:19:12.135Z,999.45
2022-11-18T10:22:45.305Z,999.48
2022-11-18T10:26:35.516Z,999.45
2022-11-18T10:30:35.164Z,999.51
2022-11-18T10:34:35.813Z,999.65
2022-11-18T10:38:46.956Z,999.69
2022-11-18T10:42:35.612Z,999.72
2022-11-18T10:46:35.547Z,999.69
2022-11-18T10:50:35.274Z,999.68
2022-11-18T10:54:35.616Z,999.76
2022-11-18T10:58:35.383Z,999.71
2022-11-18T11:02:43.468Z,999.85
2022-11-18T11:06:35.220Z,999.77
2022-11-18T11:10:35.833Z,999.78
2022-11-18T11:14:35.114Z,999.71
2022-11-18T11:18:36.021Z,999.84
2022-11-18T11:22:35.283Z,999.87
2022-11-18T11:28:17.530Z,999.93
2022-11-18T11:30:36.086Z,999.94
2022-11-18T11:34:35.515Z,999.96
2022-11-18T11:38:35.417Z,1000.04
2022-11-18T11:42:35.338Z,1000.06
2022-11-18T11:46:35.759Z,1000.09
2022-11-18T11:50:35.550Z,1000.1
2022-11-18T11:54:35.117Z,1000.13
2022-11-18T11:58:36.268Z,1000.17
2022-11-18T12:02:36.178Z,1000.12
2022-11-18T12:06:35.989Z,1000.1
2022-11-18T12:10:35.449Z,1000.07
2022-11-18T12:14:39.664Z,1000.2
2022-11-18T12:18:35.581Z,1000.22
2022-11-18T12:22:35.372Z,1000.16
2022-11-18T12:26:36.183Z,1000.2
2022-11-18T12:30:36.069Z,1000.28
2022-11-18T12:34:35.413Z,1000.24
2022-11-18T12:38:35.918Z,1000.18
2022-11-18T12:42:35.343Z,1000.27
2022-11-18T12:46:35.813Z,1000.33
2022-11-18T12:50:35.986Z,1000.34
2022-11-18T12:54:36.482Z,1000.48
2022-11-18T12:58:35.893Z,1000.37
2022-11-18T13:02:35.554Z,1000.4
2022-11-18T13:06:36.147Z,1000.51
2022-11-18T13:10:35.676Z,1000.55
2022-11-18T13:14:35.888Z,1000.55
2022-11-18T13:18:35.819Z,1000.63
2022-11-18T13:22:35.596Z,1000.66
2022-11-18T13:26:35.582Z,1000.64
2022-11-18T13:30:35.517Z,1000.71
2022-11-18T13:34:35.883Z,1000.72
2022-11-18T13:38:40.001Z,1000.82
2022-11-18T13:42:35.869Z,1000.67
2022-11-18T13:46:35.854Z,1000.95
2022-11-18T13:50:35.456Z,1000.88
2022-11-18T13:54:35.788Z,1000.9
2022-11-18T13:58:55.582Z,1001.01
2022-11-18T14:02:35.982Z,1000.92
2022-11-18T14:06:34.942Z,1000.92
2022-11-18T14:10:39.411Z,1000.98
2022-11-18T14:14:35.482Z,1000.96
2022-11-18T14:18:35.976Z,1001.01
2022-11-18T14:22:35.901Z,1001.01
2022-11-18T14:26:35.167Z,1001.09
2022-11-18T14:30:40.737Z,1001.11
2022-11-18T14:34:35.576Z,1001.29
2022-11-18T14:39:49.142Z,1001.22
2022-11-18T14:42:35.249Z,1001.27
2022-11-18T14:46:35.970Z,1001.27
2022-11-18T14:50:35.691Z,1001.34
2022-11-18T14:54:38.318Z,1001.3
2022-11-18T14:58:35.476Z,1001.41
2022-11-18T15:02:35.927Z,1001.49
2022-11-18T15:06:36.102Z,1001.45
2022-11-18T15:10:35.165Z,1001.41
2022-11-18T15:14:35.176Z,1001.54
2022-11-18T15:18:36.004Z,1001.58
2022-11-18T15:22:36.025Z,1001.54
2022-11-18T15:26:35.959Z,1001.62
2022-11-18T15:30:35.983Z,1001.74
2022-11-18T15:34:40.747Z,1001.73
2022-11-18T15:38:35.359Z,1001.78
2022-11-18T15:42:45.092Z,1001.81
2022-11-18T15:46:35.628Z,1001.93
2022-11-18T15:50:35.458Z,1001.95
2022-11-18T15:54:35.314Z,1001.99
2022-11-18T15:58:36.236Z,1002.02
2022-11-18T16:02:34.969Z,1002.07
2022-11-18T16:06:35.341Z,1002.05
2022-11-18T16:10:35.338Z,1002.09
2022-11-18T16:14:35.348Z,1002.18
2022-11-18T16:18:40.627Z,1002.13
2022-11-18T16:22:35.799Z,1002.18
2022-11-18T16:26:35.455Z,1002.19
2022-11-18T16:30:35.301Z,1002.2
2022-11-18T16:34:35.473Z,1002.34
2022-11-18T16:38:35.120Z,1002.29
2022-11-18T16:42:42.868Z,1002.37
2022-11-18T16:46:35.534Z,1002.52
2022-11-18T16:50:35.764Z,1002.51
2022-11-18T16:54:38.258Z,1002.54
2022-11-18T16:58:35.102Z,1002.59
2022-11-18T17:02:35.636Z,1002.7
2022-11-18T17:06:35.118Z,1002.7
2022-11-18T17:10:35.169Z,1002.76
2022-11-18T17:14:35.513Z,1002.72
2022-11-18T17:18:35.786Z,1002.73
2022-11-18T17:22:35.021Z,1002.83
2022-11-18T17:26:35.778Z,1002.8
2022-11-18T17:30:35.655Z,1002.94
2022-11-18T17:34:35.145Z,1002.95
2022-11-18T17:38:35.387Z,1002.92
2022-11-18T17:42:35.153Z,1002.98
2022-11-18T17:46:38.201Z,1002.95
2022-11-18T17:50:35.638Z,1002.93
2022-11-18T17:54:35.734Z,1003.11
2022-11-18T17:58:35.303Z,1003.17
2022-11-18T18:02:35.310Z,1003.21
2022-11-18T18:06:35.564Z,1003.39
2022-11-18T18:10:35.726Z,1003.43
2022-11-18T18:14:39.536Z,1003.43
2022-11-18T18:18:35.949Z,1003.41
2022-11-18T18:22:35.511Z,1003.45
2022-11-18T18:26:42.604Z,1003.51
2022-11-18T18:30:35.572Z,1003.48
2022-11-18T18:34:35.363Z,1003.53
2022-11-18T18:38:35.481Z,1003.54
2022-11-18T18:42:35.572Z,1003.56
2022-11-18T18:46:35.298Z,1003.68
2022-11-18T18:50:40.997Z,1003.62
2022-11-18T18:54:35.311Z,1003.6
2022-11-18T18:58:35.199Z,1003.68
2022-11-18T19:02:36.101Z,1003.68
2022-11-18T19:07:23.630Z,1003.71
2022-11-18T19:10:35.626Z,1003.75
2022-11-18T19:14:35.150Z,1003.86
2022-11-18T19:18:36.436Z,1003.83
2022-11-18T19:22:35.751Z,1003.78
2022-11-18T19:26:35.566Z,1004.02
2022-11-18T19:30:35.683Z,1003.91
2022-11-18T19:34:35.233Z,1003.94
2022-11-18T19:38:35.099Z,1003.97
2022-11-18T19:42:35.686Z,1004.15
2022-11-18T19:46:41.732Z,1004.11
2022-11-18T19:50:35.903Z,1004.17
2022-11-18T19:54:35.365Z,1004.18
2022-11-18T19:58:35.468Z,1004.35
2022-11-18T20:02:35.397Z,1004.35
2022-11-18T20:06:35.578Z,1004.35
2022-11-18T20:12:46.008Z,1004.26
2022-11-18T20:14:35.595Z,1004.26
2022-11-18T20:16:35.215Z,1004.26
2022-11-18T20:18:35.219Z,1004.33
2022-11-18T20:20:35.466Z,1004.4
2022-11-18T20:22:35.229Z,1004.4
2022-11-18T20:24:35.428Z,1004.41
2022-11-18T20:26:35.492Z,1004.41
2022-11-18T20:28:36.067Z,1004.43
2022-11-18T20:30:35.617Z,1004.43
2022-11-18T20:32:35.193Z,1004.48
2022-11-18T20:34:35.779Z,1004.48
2022-11-18T20:36:35.804Z,1004.59
2022-11-18T20:38:35.923Z,1004.59
2022-11-18T20:40:35.349Z,1004.59
2022-11-18T20:42:35.500Z,1004.59
2022-11-18T20:44:35.523Z,1004.65
2022-11-18T20:46:42.790Z,1004.65
2022-11-18T20:48:35.348Z,1004.73
2022-11-18T20:50:36.048Z,1004.73
2022-11-18T20:52:35.165Z,1004.79
2022-11-18T20:54:35.167Z,1004.79
2022-11-18T20:56:35.708Z,1004.75
2022-11-18T20:58:35.043Z,1004.75
2022-11-18T21:00:39.392Z,1004.84
2022-11-18T21:02:35.174Z,1004.84
2022-11-18T21:04:35.947Z,1004.89
2022-11-18T21:06:37.152Z,1004.89
2022-11-18T21:08:35.773Z,1004.87
2022-11-18T21:10:36.013Z,1004.87
2022-11-18T21:12:35.443Z,1004.91
2022-11-18T21:14:37.678Z,1004.91
2022-11-18T21:16:35.439Z,1004.98
2022-11-18T21:18:35.183Z,1004.98
2022-11-18T21:20:35.558Z,1005.12
2022-11-18T21:22:36.100Z,1005.12
2022-11-18T21:24:35.141Z,1005.26
2022-11-18T21:26:36.168Z,1005.26
2022-11-18T21:28:34.999Z,1005.27
2022-11-18T21:30:35.476Z,1005.27
2022-11-18T21:32:35.061Z,1005.2
2022-11-18T21:34:35.238Z,1005.2
2022-11-18T21:36:38.844Z,1005.39
2022-11-18T21:38:35.594Z,1005.39
2022-11-18T21:40:35.235Z,1005.42
2022-11-18T21:42:35.783Z,1005.42
2022-11-18T21:44:40.427Z,1005.5
2022-11-18T21:46:35.375Z,1005.5
2022-11-18T21:48:35.790Z,1005.58
2022-11-18T21:50:35.902Z,1005.58
2022-11-18T21:52:35.336Z,1005.53
2022-11-18T21:54:35.852Z,1005.53
2022-11-18T21:56:35.038Z,1005.61
2022-11-18T21:58:38.050Z,1005.61
2022-11-18T22:00:36.617Z,1005.68
2022-11-18T22:02:35.581Z,1005.68
2022-11-18T22:04:35.174Z,1005.57
2022-11-18T22:06:35.409Z,1005.57
2022-11-18T22:08:35.888Z,1005.83
2022-11-18T22:10:35.457Z,1005.83
2022-11-18T22:12:35.770Z,1005.88
2022-11-18T22:14:35.316Z,1005.88
2022-11-18T22:16:35.354Z,1005.77
2022-11-18T22:18:35.399Z,1005.77
2022-11-18T22:20:35.969Z,1005.8
2022-11-18T22:22:35.262Z,1005.8
2022-11-18T22:24:35.345Z,1005.87
2022-11-18T22:26:35.782Z,1005.87
2022-11-18T22:28:35.582Z,1005.93
2022-11-18T22:30:35.920Z,1005.93
2022-11-18T22:32:35.342Z,1005.92
2022-11-18T22:34:35.904Z,1005.92
2022-11-18T22:36:35.728Z,1006.05
2022-11-18T22:38:35.924Z,1006.05
2022-11-18T22:40:35.174Z,1005.99
2022-11-18T22:42:35.657Z,1005.99
2022-11-18T22:44:41.392Z,1006.04
2022-11-18T22:46:35.680Z,1006.04
2022-11-18T22:48:35.120Z,1006.09
2022-11-18T22:50:35.717Z,1006.09
2022-11-18T22:52:35.869Z,1006.16
2022-11-18T22:55:11.280Z,1006.08
2022-11-18T22:56:35.065Z,1006.08
2022-11-18T22:58:35.952Z,1006.08
2022-11-18T23:00:35.663Z,1006.26
2022-11-18T23:02:35.184Z,1006.26
2022-11-18T23:04:35.427Z,1006.32
2022-11-18T23:06:35.266Z,1006.32
2022-11-18T23:08:35.777Z,1006.47
2022-11-18T23:10:35.801Z,1006.47
2022-11-18T23:12:35.797Z,1006.4
2022-11-18T23:14:35.921Z,1006.4
2022-11-18T23:16:35.449Z,1006.46
2022-11-18T23:18:35.342Z,1006.46
2022-11-18T23:20:35.976Z,1006.61
2022-11-18T23:22:35.602Z,1006.61
2022-11-18T23:24:35.031Z,1006.51
2022-11-18T23:26:35.581Z,1006.51
2022-11-18T23:28:35.931Z,1006.53
2022-11-18T23:30:35.340Z,1006.53
2022-11-18T23:32:35.398Z,1006.75
2022-11-18T23:34:35.748Z,1006.75
2022-11-18T23:36:35.240Z,1006.63
2022-11-18T23:38:35.287Z,1006.63
2022-11-18T23:40:35.548Z,1006.7
2022-11-18T23:42:35.768Z,1006.64
2022-11-18T23:44:35.276Z,1006.64
2022-11-18T23:46:35.487Z,1006.77
2022-11-18T23:48:35.991Z,1006.77
2022-11-18T23:50:39.314Z,1006.79
2022-11-18T23:52:35.950Z,1006.79
2022-11-18T23:54:35.469Z,1006.99
2022-11-18T23:56:38.316Z,1006.99
2022-11-18T23:58:35.611Z,1006.95
